Time;durP1;ratioP1;P1;durP2;ratioP2;P2;SDS_P1;SDS_P2;PMS_P1;PMS_P2;Temp;Humidity;BMP_temperature;BMP_pressure;BME280_temperature;BME280_humidity;BME280_pressure;Samples;Min_cycle;Max_cycle;Signal;HPM_P1;HPM_P2
2023/09/14 00:00:10;;;;;;;42.70;25.38;;;;;;;;;;5034549;28;20020;-65
2023/09/14 00:02:35;;;;;;;43.33;26.38;;;;;;;;;;5034484;28;20404;-65
2023/09/14 00:05:00;;;;;;;40.87;26.13;;;;;;;;;;5033335;28;20028;-65
2023/09/14 00:07:26;;;;;;;40.60;25.45;;;;;;;;;;5034566;28;20028;-64
2023/09/14 00:09:51;;;;;;;37.17;22.30;;;;;;;;;;5034224;28;20055;-64
2023/09/14 00:12:16;;;;;;;40.63;25.13;;;;;;;;;;5034283;28;20029;-65
2023/09/14 00:14:41;;;;;;;38.07;24.00;;;;;;;;;;5033938;28;20028;-65
2023/09/14 00:17:06;;;;;;;35.20;22.87;;;;;;;;;;5034148;28;20465;-64
2023/09/14 00:19:32;;;;;;;45.10;23.80;;;;;;;;;;5034145;28;20608;-64
2023/09/14 00:21:57;;;;;;;41.77;23.63;;;;;;;;;;5033997;28;20021;-68
2023/09/14 00:24:22;;;;;;;44.03;24.57;;;;;;;;;;5034157;28;20075;-68
2023/09/14 00:26:47;;;;;;;36.60;24.13;;;;;;;;;;5033932;28;20013;-68
2023/09/14 00:29:12;;;;;;;36.97;23.63;;;;;;;;;;5033595;28;20017;-68
2023/09/14 00:31:38;;;;;;;37.07;23.83;;;;;;;;;;5033850;28;20437;-68
2023/09/14 00:34:03;;;;;;;35.17;21.52;;;;;;;;;;5033818;28;20029;-68
2023/09/14 00:36:30;;;;;;;41.35;22.48;;;;;;;;;;5033860;28;20029;-68
2023/09/14 00:38:55;;;;;;;35.10;22.83;;;;;;;;;;5033937;28;20044;-68
2023/09/14 00:41:20;;;;;;;33.97;21.87;;;;;;;;;;5034001;28;20030;-68
2023/09/14 00:43:45;;;;;;;42.33;24.93;;;;;;;;;;5034128;28;20021;-68
2023/09/14 00:46:11;;;;;;;44.83;23.30;;;;;;;;;;5033806;28;20238;-68
2023/09/14 00:48:37;;;;;;;38.95;24.38;;;;;;;;;;5033346;28;20266;-68
2023/09/14 00:51:03;;;;;;;40.92;23.75;;;;;;;;;;5033805;28;20037;-68
2023/09/14 00:53:28;;;;;;;38.00;21.85;;;;;;;;;;5033536;28;20428;-67
2023/09/14 00:55:54;;;;;;;37.55;21.90;;;;;;;;;;5033405;28;20018;-68
2023/09/14 00:58:20;;;;;;;36.83;22.67;;;;;;;;;;5033431;28;20025;-68
2023/09/14 01:00:46;;;;;;;41.35;23.90;;;;;;;;;;5033188;28;20036;-68
2023/09/14 01:03:13;;;;;;;38.42;22.80;;;;;;;;;;5033308;28;20424;-68
2023/09/14 01:05:39;;;;;;;47.05;26.33;;;;;;;;;;5033522;28;20043;-67
2023/09/14 01:08:04;;;;;;;44.75;26.13;;;;;;;;;;5032972;28;20476;-68
2023/09/14 01:10:30;;;;;;;40.83;25.13;;;;;;;;;;5033270;28;20041;-68
2023/09/14 01:12:56;;;;;;;38.93;23.23;;;;;;;;;;5032820;28;20461;-68
2023/09/14 01:15:43;;;;;;;40.70;24.80;;;;;;;;;;5032876;28;20045;-69
2023/09/14 01:18:12;;;;;;;38.03;24.15;;;;;;;;;;5033179;28;20385;-68
2023/09/14 01:20:55;;;;;;;48.20;24.15;;;;;;;;;;5033061;28;20113;-68
2023/09/14 01:23:28;;;;;;;46.42;25.75;;;;;;;;;;5033134;28;20107;-68
2023/09/14 01:25:54;;;;;;;42.78;23.75;;;;;;;;;;5033139;28;20022;-68
2023/09/14 01:28:19;;;;;;;45.38;25.63;;;;;;;;;;5032777;28;20090;-68
2023/09/14 01:30:44;;;;;;;39.03;22.73;;;;;;;;;;5032799;28;20048;-68
2023/09/14 01:33:10;;;;;;;45.17;25.33;;;;;;;;;;5032771;28;20676;-68
2023/09/14 01:35:40;;;;;;;42.35;24.83;;;;;;;;;;5032881;28;20255;-68
2023/09/14 01:38:05;;;;;;;46.50;25.75;;;;;;;;;;5032884;28;20025;-68
2023/09/14 01:40:32;;;;;;;41.03;24.23;;;;;;;;;;5032759;28;20057;-68
2023/09/14 01:42:59;;;;;;;40.30;23.33;;;;;;;;;;5032749;28;20315;-68
2023/09/14 01:45:24;;;;;;;39.72;22.90;;;;;;;;;;5032746;28;20048;-68
2023/09/14 01:47:53;;;;;;;43.25;23.00;;;;;;;;;;5032625;28;20021;-68
2023/09/14 01:50:18;;;;;;;46.13;25.33;;;;;;;;;;5033108;28;20531;-68
2023/09/14 01:52:44;;;;;;;41.13;23.90;;;;;;;;;;5032495;28;20021;-68
2023/09/14 01:55:10;;;;;;;44.33;24.70;;;;;;;;;;5032870;28;20076;-68
2023/09/14 01:57:35;;;;;;;48.15;25.02;;;;;;;;;;5032695;28;20117;-68
2023/09/14 02:00:00;;;;;;;42.88;24.48;;;;;;;;;;5032465;28;20052;-69
2023/09/14 02:02:26;;;;;;;49.80;24.40;;;;;;;;;;5032727;28;20029;-68
2023/09/14 02:04:51;;;;;;;45.25;25.60;;;;;;;;;;5032595;28;20404;-68
2023/09/14 02:07:16;;;;;;;45.80;24.20;;;;;;;;;;5032608;28;20022;-68
2023/09/14 02:09:42;;;;;;;42.83;24.30;;;;;;;;;;5032612;28;20393;-68
2023/09/14 02:12:07;;;;;;;42.05;24.25;;;;;;;;;;5032556;28;20297;-68
2023/09/14 02:14:32;;;;;;;43.55;23.90;;;;;;;;;;5032577;28;20082;-69
2023/09/14 02:16:58;;;;;;;39.13;22.87;;;;;;;;;;5032217;28;20030;-68
2023/09/14 02:19:23;;;;;;;41.73;25.43;;;;;;;;;;5032717;28;20743;-68
2023/09/14 02:21:48;;;;;;;43.00;24.87;;;;;;;;;;5032635;28;20152;-68
2023/09/14 02:24:13;;;;;;;39.63;22.67;;;;;;;;;;5032270;28;20262;-68
2023/09/14 02:26:38;;;;;;;38.67;22.47;;;;;;;;;;5032403;28;20025;-68
2023/09/14 02:29:04;;;;;;;45.22;23.08;;;;;;;;;;5035739;28;20261;-68
2023/09/14 02:31:29;;;;;;;36.92;23.38;;;;;;;;;;5035850;28;20050;-68
2023/09/14 02:33:54;;;;;;;43.00;23.40;;;;;;;;;;5036143;28;20030;-68
2023/09/14 02:36:21;;;;;;;45.53;24.57;;;;;;;;;;5035776;28;20270;-67
2023/09/14 02:38:46;;;;;;;45.45;24.45;;;;;;;;;;5036516;28;20495;-68
2023/09/14 02:41:11;;;;;;;37.50;22.60;;;;;;;;;;5036535;28;20021;-68
2023/09/14 02:43:37;;;;;;;41.47;23.33;;;;;;;;;;5036427;28;20258;-68
2023/09/14 02:46:02;;;;;;;38.27;22.60;;;;;;;;;;5035947;28;20052;-68
2023/09/14 02:48:27;;;;;;;37.70;22.23;;;;;;;;;;5035722;28;20053;-68
2023/09/14 02:50:52;;;;;;;45.20;22.07;;;;;;;;;;5035814;28;20259;-68
2023/09/14 02:53:17;;;;;;;40.87;22.83;;;;;;;;;;5035945;28;20021;-68
2023/09/14 02:55:43;;;;;;;42.10;22.63;;;;;;;;;;5035827;28;20539;-68
2023/09/14 02:58:08;;;;;;;37.83;21.35;;;;;;;;;;5035580;28;20251;-68
2023/09/14 03:00:36;;;;;;;40.22;21.95;;;;;;;;;;5035619;28;20022;-68
2023/09/14 03:03:02;;;;;;;44.08;22.92;;;;;;;;;;5035611;28;20028;-68
2023/09/14 03:05:27;;;;;;;37.42;22.23;;;;;;;;;;5035745;28;20033;-68
2023/09/14 03:07:52;;;;;;;37.40;20.77;;;;;;;;;;5035346;28;20029;-68
2023/09/14 03:10:17;;;;;;;35.53;18.80;;;;;;;;;;5035517;28;20358;-68
2023/09/14 03:12:43;;;;;;;34.53;20.10;;;;;;;;;;5035396;28;20067;-68
2023/09/14 03:15:08;;;;;;;33.40;19.00;;;;;;;;;;5035066;28;20021;-68
2023/09/14 03:17:33;;;;;;;31.25;18.60;;;;;;;;;;5035651;28;20028;-68
2023/09/14 03:19:59;;;;;;;32.50;18.85;;;;;;;;;;5035211;28;20067;-68
2023/09/14 03:22:24;;;;;;;38.42;20.58;;;;;;;;;;5035573;28;20096;-68
2023/09/14 03:24:50;;;;;;;35.67;19.88;;;;;;;;;;5034913;28;20503;-68
2023/09/14 03:27:15;;;;;;;27.45;16.17;;;;;;;;;;5035485;28;20095;-68
2023/09/14 03:29:40;;;;;;;30.67;17.50;;;;;;;;;;5035384;28;20026;-68
2023/09/14 03:32:05;;;;;;;30.87;18.27;;;;;;;;;;5034704;28;20286;-68
2023/09/14 03:34:31;;;;;;;31.80;18.25;;;;;;;;;;5035196;28;20029;-68
2023/09/14 03:36:56;;;;;;;28.57;16.23;;;;;;;;;;5035032;28;20023;-68
2023/09/14 03:39:21;;;;;;;29.63;17.07;;;;;;;;;;5034463;28;20030;-68
2023/09/14 03:41:49;;;;;;;28.90;16.37;;;;;;;;;;5035010;28;20025;-68
2023/09/14 03:44:14;;;;;;;28.90;18.10;;;;;;;;;;5034618;28;20662;-68
2023/09/14 03:46:39;;;;;;;29.67;16.73;;;;;;;;;;5034827;28;20021;-68
2023/09/14 03:49:06;;;;;;;33.53;16.80;;;;;;;;;;5034844;28;20028;-68
2023/09/14 03:51:32;;;;;;;32.13;16.70;;;;;;;;;;5034919;28;20056;-68
2023/09/14 03:53:57;;;;;;;33.83;17.73;;;;;;;;;;5034599;28;20060;-68
2023/09/14 03:56:22;;;;;;;23.67;15.50;;;;;;;;;;5034583;28;20014;-68
2023/09/14 03:58:47;;;;;;;28.30;16.33;;;;;;;;;;5034669;28;20052;-68
2023/09/14 04:01:12;;;;;;;32.07;16.97;;;;;;;;;;5034534;28;20320;-68
2023/09/14 04:03:38;;;;;;;29.88;16.77;;;;;;;;;;5034506;28;20277;-68
2023/09/14 04:06:03;;;;;;;37.37;15.17;;;;;;;;;;5034737;28;20026;-68
2023/09/14 04:08:28;;;;;;;28.90;14.83;;;;;;;;;;5034229;28;20718;-68
2023/09/14 04:10:53;;;;;;;30.90;16.13;;;;;;;;;;5034330;28;20677;-68
2023/09/14 04:13:29;;;;;;;77.47;15.18;;;;;;;;;;5034568;28;20039;-68
2023/09/14 04:15:58;;;;;;;29.60;14.95;;;;;;;;;;5034371;28;20021;-68
2023/09/14 04:18:24;;;;;;;30.95;17.73;;;;;;;;;;5034300;28;20496;-68
2023/09/14 04:20:49;;;;;;;33.33;18.65;;;;;;;;;;5034040;28;20104;-68
2023/09/14 04:23:14;;;;;;;40.38;18.20;;;;;;;;;;5034148;28;20060;-68
2023/09/14 04:25:44;;;;;;;33.73;19.20;;;;;;;;;;5033876;28;20041;-68
2023/09/14 04:28:12;;;;;;;33.22;17.65;;;;;;;;;;5033846;28;20033;-68
2023/09/14 04:30:45;;;;;;;35.83;18.42;;;;;;;;;;5033808;28;20075;-68
2023/09/14 04:33:14;;;;;;;44.17;19.52;;;;;;;;;;5033830;28;20039;-68
2023/09/14 04:35:39;;;;;;;32.60;19.50;;;;;;;;;;5033602;28;20529;-68
2023/09/14 04:38:06;;;;;;;32.13;18.38;;;;;;;;;;5033893;28;20072;-68
2023/09/14 04:40:31;;;;;;;46.13;20.98;;;;;;;;;;5033675;28;20096;-68
2023/09/14 04:42:56;;;;;;;44.25;20.13;;;;;;;;;;5033572;28;20075;-68
2023/09/14 04:45:21;;;;;;;51.70;20.43;;;;;;;;;;5033692;28;20048;-68
2023/09/14 04:47:46;;;;;;;43.97;20.80;;;;;;;;;;5033490;28;20058;-68
2023/09/14 04:50:12;;;;;;;38.70;20.23;;;;;;;;;;5033031;28;20532;-68
2023/09/14 04:52:37;;;;;;;33.30;18.63;;;;;;;;;;5033498;28;20104;-68
2023/09/14 04:55:02;;;;;;;33.10;17.10;;;;;;;;;;5033371;28;20295;-68
2023/09/14 04:57:27;;;;;;;29.73;17.80;;;;;;;;;;5033487;28;20024;-68
2023/09/14 04:59:52;;;;;;;26.37;15.10;;;;;;;;;;5033355;28;20359;-68
2023/09/14 05:02:18;;;;;;;30.23;15.57;;;;;;;;;;5033553;28;20017;-68
2023/09/14 05:04:43;;;;;;;29.10;16.27;;;;;;;;;;5033396;28;20037;-68
2023/09/14 05:07:08;;;;;;;28.63;15.95;;;;;;;;;;5033145;28;20024;-68
2023/09/14 05:09:33;;;;;;;28.47;15.33;;;;;;;;;;5033291;28;20063;-68
2023/09/14 05:11:59;;;;;;;28.57;15.70;;;;;;;;;;5033053;28;20026;-68
2023/09/14 05:14:24;;;;;;;25.05;15.48;;;;;;;;;;5033548;28;20080;-68
2023/09/14 05:16:49;;;;;;;24.52;15.38;;;;;;;;;;5033334;28;20504;-68
2023/09/14 05:19:14;;;;;;;25.90;15.63;;;;;;;;;;5033118;28;20057;-68
2023/09/14 05:21:40;;;;;;;27.83;15.47;;;;;;;;;;5033412;28;20473;-68
2023/09/14 05:24:05;;;;;;;24.70;14.93;;;;;;;;;;5033083;28;20290;-68
2023/09/14 05:26:31;;;;;;;25.63;14.45;;;;;;;;;;5032792;28;20097;-68
2023/09/14 05:28:56;;;;;;;24.08;14.45;;;;;;;;;;5033077;28;20130;-68
2023/09/14 05:31:21;;;;;;;22.40;13.30;;;;;;;;;;5032936;28;20041;-68
2023/09/14 05:33:46;;;;;;;20.93;12.60;;;;;;;;;;5032726;28;20036;-68
2023/09/14 05:36:12;;;;;;;21.77;13.20;;;;;;;;;;5032898;28;20045;-68
2023/09/14 05:38:37;;;;;;;24.63;13.15;;;;;;;;;;5032642;28;20374;-67
2023/09/14 05:41:03;;;;;;;17.30;11.73;;;;;;;;;;5032890;28;20097;-68
2023/09/14 05:43:28;;;;;;;20.90;13.43;;;;;;;;;;5032494;28;20021;-68
2023/09/14 05:45:54;;;;;;;30.38;16.60;;;;;;;;;;5032547;28;20028;-68
2023/09/14 05:48:19;;;;;;;24.70;14.68;;;;;;;;;;5032954;28;20036;-68
2023/09/14 05:50:44;;;;;;;22.47;13.70;;;;;;;;;;5029712;28;20469;-67
2023/09/14 05:53:10;;;;;;;25.03;14.87;;;;;;;;;;5027930;28;20796;-68
2023/09/14 05:55:35;;;;;;;21.00;12.73;;;;;;;;;;5031666;28;20025;-68
2023/09/14 05:58:00;;;;;;;27.27;12.80;;;;;;;;;;5032126;28;20020;-68
2023/09/14 06:00:25;;;;;;;23.60;13.43;;;;;;;;;;5032090;28;20362;-68
2023/09/14 06:02:51;;;;;;;26.57;13.73;;;;;;;;;;5034664;28;20266;-68
2023/09/14 06:05:16;;;;;;;26.23;13.75;;;;;;;;;;5036374;28;20393;-68
2023/09/14 06:07:41;;;;;;;26.80;14.70;;;;;;;;;;5035254;28;20075;-68
2023/09/14 06:10:07;;;;;;;21.07;12.87;;;;;;;;;;5036026;28;20266;-68
2023/09/14 06:12:32;;;;;;;20.92;12.50;;;;;;;;;;5036212;28;20033;-64
2023/09/14 06:14:57;;;;;;;21.20;12.05;;;;;;;;;;5036232;28;20021;-64
2023/09/14 06:17:22;;;;;;;24.43;14.80;;;;;;;;;;5035975;28;20026;-63
2023/09/14 06:19:48;;;;;;;26.20;13.10;;;;;;;;;;5035812;28;20101;-73
2023/09/14 06:22:13;;;;;;;32.28;16.75;;;;;;;;;;5035426;28;20298;-73
2023/09/14 06:24:38;;;;;;;27.27;11.60;;;;;;;;;;5035587;28;20025;-63
2023/09/14 06:27:04;;;;;;;31.93;14.47;;;;;;;;;;5035914;28;20259;-63
2023/09/14 06:29:29;;;;;;;28.90;14.13;;;;;;;;;;5035949;28;20254;-63
2023/09/14 06:31:54;;;;;;;17.37;9.30;;;;;;;;;;5035201;28;20046;-63
2023/09/14 06:34:19;;;;;;;33.50;17.10;;;;;;;;;;5035733;28;20339;-63
2023/09/14 06:36:46;;;;;;;20.95;12.75;;;;;;;;;;5034868;28;20032;-63
2023/09/14 06:39:12;;;;;;;23.13;10.93;;;;;;;;;;5035486;28;20017;-63
2023/09/14 06:41:37;;;;;;;32.85;8.05;;;;;;;;;;5035866;28;20022;-63
2023/09/14 06:44:03;;;;;;;21.30;7.03;;;;;;;;;;5035592;28;20485;-63
2023/09/14 06:46:28;;;;;;;16.27;7.55;;;;;;;;;;5035240;28;20659;-63
2023/09/14 06:48:53;;;;;;;17.37;6.43;;;;;;;;;;5035212;28;20026;-63
2023/09/14 06:51:18;;;;;;;22.90;7.13;;;;;;;;;;5034780;28;20297;-63
2023/09/14 06:53:44;;;;;;;12.88;5.82;;;;;;;;;;5035284;28;20025;-63
2023/09/14 06:56:10;;;;;;;12.00;5.30;;;;;;;;;;5035429;28;20017;-63
2023/09/14 06:58:35;;;;;;;11.65;4.82;;;;;;;;;;5035208;28;20029;-63
2023/09/14 07:01:05;;;;;;;12.77;4.60;;;;;;;;;;5034865;28;20027;-63
2023/09/14 07:03:30;;;;;;;21.83;5.00;;;;;;;;;;5035542;28;20029;-63
2023/09/14 07:05:56;;;;;;;12.55;3.90;;;;;;;;;;5034423;28;20378;-63
2023/09/14 07:08:21;;;;;;;13.77;4.10;;;;;;;;;;5035183;28;20052;-63
2023/09/14 07:10:46;;;;;;;8.73;3.50;;;;;;;;;;5035059;28;20018;-63
2023/09/14 07:13:12;;;;;;;10.10;2.90;;;;;;;;;;5033214;28;20291;-64
2023/09/14 07:15:37;;;;;;;13.90;3.57;;;;;;;;;;5034727;28;20333;-64
2023/09/14 07:18:02;;;;;;;7.43;3.30;;;;;;;;;;5034852;28;20022;-64
2023/09/14 07:20:27;;;;;;;10.02;3.53;;;;;;;;;;5034404;28;20331;-64
2023/09/14 07:22:54;;;;;;;8.55;3.25;;;;;;;;;;5034624;28;20088;-64
2023/09/14 07:25:19;;;;;;;7.40;2.88;;;;;;;;;;5034886;28;20033;-65
2023/09/14 07:27:44;;;;;;;9.48;3.13;;;;;;;;;;5034571;28;20036;-64
2023/09/14 07:30:11;;;;;;;7.75;2.85;;;;;;;;;;5034447;28;20433;-64
2023/09/14 07:32:37;;;;;;;6.82;3.05;;;;;;;;;;5034764;28;20030;-64
2023/09/14 07:35:03;;;;;;;8.48;3.25;;;;;;;;;;5034355;28;20039;-64
2023/09/14 07:37:29;;;;;;;9.82;3.20;;;;;;;;;;5034147;28;20017;-64
2023/09/14 07:39:54;;;;;;;7.53;2.77;;;;;;;;;;5034524;28;20017;-64
2023/09/14 07:42:19;;;;;;;8.07;2.60;;;;;;;;;;5034143;28;20142;-64
2023/09/14 07:44:44;;;;;;;5.80;2.23;;;;;;;;;;5034085;28;20473;-64
2023/09/14 07:47:09;;;;;;;7.80;2.90;;;;;;;;;;5033736;28;20079;-64
2023/09/14 07:49:34;;;;;;;7.90;2.50;;;;;;;;;;5033495;28;20021;-64
2023/09/14 07:52:00;;;;;;;6.37;2.40;;;;;;;;;;5033744;28;20029;-64
2023/09/14 07:54:25;;;;;;;9.40;2.93;;;;;;;;;;5034174;28;20397;-64
2023/09/14 07:56:50;;;;;;;9.93;2.65;;;;;;;;;;5034442;28;20266;-64
2023/09/14 07:59:15;;;;;;;7.63;2.47;;;;;;;;;;5033855;28;20390;-64
2023/09/14 08:01:41;;;;;;;4.80;2.40;;;;;;;;;;5034353;28;20473;-64
2023/09/14 08:04:06;;;;;;;7.00;2.67;;;;;;;;;;5033887;28;20254;-64
2023/09/14 08:06:33;;;;;;;9.40;2.73;;;;;;;;;;5033399;28;20022;-65
2023/09/14 08:08:58;;;;;;;8.45;2.90;;;;;;;;;;5026470;28;20029;-64
2023/09/14 08:11:24;;;;;;;5.10;2.47;;;;;;;;;;5032881;28;20358;-64
2023/09/14 08:13:49;;;;;;;7.15;2.60;;;;;;;;;;5032666;28;20281;-64
2023/09/14 08:16:14;;;;;;;4.47;2.50;;;;;;;;;;5034596;28;20028;-64
2023/09/14 08:18:39;;;;;;;6.13;2.30;;;;;;;;;;5034616;28;20024;-64
2023/09/14 08:21:04;;;;;;;6.43;2.63;;;;;;;;;;5034596;28;20305;-64
2023/09/14 08:23:30;;;;;;;6.80;2.50;;;;;;;;;;5034609;28;20036;-65
2023/09/14 08:25:55;;;;;;;4.97;2.23;;;;;;;;;;5033678;28;20402;-64
2023/09/14 08:28:20;;;;;;;9.23;2.50;;;;;;;;;;5034491;28;20040;-65
2023/09/14 08:30:46;;;;;;;6.25;2.42;;;;;;;;;;5034232;28;20080;-65
2023/09/14 08:33:12;;;;;;;4.97;2.28;;;;;;;;;;5034355;28;20025;-68
2023/09/14 08:35:37;;;;;;;6.55;2.40;;;;;;;;;;5034415;28;20036;-68
2023/09/14 08:38:06;;;;;;;5.32;2.28;;;;;;;;;;5034294;28;20013;-68
2023/09/14 08:40:32;;;;;;;6.80;2.45;;;;;;;;;;5034304;28;20068;-68
2023/09/14 08:42:59;;;;;;;5.88;2.20;;;;;;;;;;5034455;28;20028;-68
2023/09/14 08:45:31;;;;;;;10.98;2.60;;;;;;;;;;5034470;28;20076;-68
2023/09/14 08:47:57;;;;;;;5.55;2.60;;;;;;;;;;5034109;28;20064;-68
2023/09/14 08:50:26;;;;;;;5.93;2.55;;;;;;;;;;5034113;28;20021;-68
2023/09/14 08:52:51;;;;;;;4.00;2.45;;;;;;;;;;5034206;28;20053;-68
2023/09/14 08:55:18;;;;;;;5.07;2.70;;;;;;;;;;5034336;28;20037;-68
2023/09/14 08:57:44;;;;;;;5.63;2.92;;;;;;;;;;5033886;28;20032;-69
2023/09/14 09:00:15;;;;;;;11.25;2.70;;;;;;;;;;5034222;28;20097;-69
2023/09/14 09:02:48;;;;;;;6.10;2.65;;;;;;;;;;5034193;28;20026;-68
2023/09/14 09:05:17;;;;;;;6.53;2.00;;;;;;;;;;5034128;28;20481;-69
2023/09/14 09:07:43;;;;;;;10.80;3.15;;;;;;;;;;5033833;28;20029;-69
2023/09/14 09:10:20;;;;;;;5.55;2.45;;;;;;;;;;5034085;28;20029;-69
2023/09/14 09:12:46;;;;;;;6.03;3.08;;;;;;;;;;5033909;28;20481;-68
2023/09/14 09:15:12;;;;;;;4.90;2.60;;;;;;;;;;5033909;28;20136;-69
2023/09/14 09:17:39;;;;;;;7.15;3.10;;;;;;;;;;5033695;28;20109;-69
2023/09/14 09:20:14;;;;;;;7.28;3.28;;;;;;;;;;5032351;28;20087;-69
2023/09/14 09:22:45;;;;;;;5.05;3.00;;;;;;;;;;5033832;28;20033;-68
2023/09/14 09:25:11;;;;;;;7.75;3.58;;;;;;;;;;5033575;28;20021;-68
2023/09/14 09:27:39;;;;;;;6.25;2.50;;;;;;;;;;5033766;28;20045;-68
2023/09/14 09:30:04;;;;;;;4.80;2.58;;;;;;;;;;5033442;28;20017;-68
2023/09/14 09:32:30;;;;;;;6.65;2.90;;;;;;;;;;5033577;28;20431;-68
2023/09/14 09:34:55;;;;;;;4.47;2.60;;;;;;;;;;5032948;28;20092;-69
2023/09/14 09:37:23;;;;;;;7.30;2.40;;;;;;;;;;5033081;28;20032;-72
2023/09/14 09:39:48;;;;;;;8.05;2.97;;;;;;;;;;5033138;28;20025;-72
2023/09/14 09:42:13;;;;;;;5.67;2.70;;;;;;;;;;5032860;28;20021;-72
2023/09/14 09:44:39;;;;;;;6.00;2.75;;;;;;;;;;5033240;28;20021;-72
2023/09/14 09:47:05;;;;;;;8.18;2.40;;;;;;;;;;5033475;28;20056;-72
2023/09/14 09:49:30;;;;;;;4.47;2.55;;;;;;;;;;5033266;28;20057;-72
2023/09/14 09:51:57;;;;;;;5.70;2.70;;;;;;;;;;5033307;28;20013;-72
2023/09/14 09:54:24;;;;;;;9.45;2.65;;;;;;;;;;5033102;28;20079;-72
2023/09/14 09:56:49;;;;;;;5.65;3.03;;;;;;;;;;5033120;28;20469;-72
2023/09/14 09:59:15;;;;;;;5.40;2.95;;;;;;;;;;5033133;28;20132;-72
2023/09/14 10:01:41;;;;;;;5.45;2.95;;;;;;;;;;5032516;28;20033;-68
2023/09/14 10:04:07;;;;;;;6.35;3.08;;;;;;;;;;5031928;28;20506;-68
2023/09/14 10:06:32;;;;;;;6.47;3.50;;;;;;;;;;5013574;28;20026;-68
2023/09/14 10:08:58;;;;;;;6.70;3.25;;;;;;;;;;5013984;28;20382;-67
2023/09/14 10:11:24;;;;;;;5.20;2.83;;;;;;;;;;5032307;28;20056;-68
2023/09/14 10:13:50;;;;;;;15.50;3.17;;;;;;;;;;5026762;28;20478;-67
2023/09/14 10:16:17;;;;;;;6.23;2.90;;;;;;;;;;5031466;28;20018;-68
2023/09/14 10:18:43;;;;;;;8.15;2.97;;;;;;;;;;5032042;28;20295;-68
2023/09/14 10:21:08;;;;;;;5.55;2.28;;;;;;;;;;5032296;28;20049;-68
2023/09/14 10:23:34;;;;;;;4.47;2.53;;;;;;;;;;5031998;28;20057;-68
2023/09/14 10:26:00;;;;;;;4.95;2.80;;;;;;;;;;5032236;28;20034;-68
2023/09/14 10:28:25;;;;;;;4.70;2.80;;;;;;;;;;5031793;28;20029;-68
2023/09/14 10:30:52;;;;;;;8.25;2.97;;;;;;;;;;5032312;28;20689;-68
2023/09/14 10:33:18;;;;;;;5.53;2.80;;;;;;;;;;5036715;28;20025;-68
2023/09/14 10:35:43;;;;;;;5.18;2.88;;;;;;;;;;5052223;28;20047;-67
2023/09/14 10:38:09;;;;;;;5.38;2.60;;;;;;;;;;5052312;28;20017;-68
2023/09/14 10:40:36;;;;;;;5.55;2.63;;;;;;;;;;5052168;28;20027;-68
2023/09/14 10:43:02;;;;;;;5.97;2.72;;;;;;;;;;5051873;28;20028;-68
2023/09/14 10:45:30;;;;;;;5.05;2.72;;;;;;;;;;5052255;28;20025;-68
2023/09/14 10:47:56;;;;;;;5.93;2.75;;;;;;;;;;5052181;28;20057;-68
2023/09/14 10:50:21;;;;;;;4.90;2.70;;;;;;;;;;5055743;28;20416;-68
2023/09/14 10:52:47;;;;;;;3.83;2.33;;;;;;;;;;5055742;28;20074;-68
2023/09/14 10:55:12;;;;;;;6.90;2.88;;;;;;;;;;5051846;28;20018;-68
2023/09/14 10:57:41;;;;;;;10.00;2.90;;;;;;;;;;5034888;28;20363;-67
2023/09/14 11:00:07;;;;;;;7.55;2.33;;;;;;;;;;5035531;28;20738;-68
2023/09/14 11:02:45;;;;;;;5.53;2.70;;;;;;;;;;5035508;28;20036;-68
2023/09/14 11:05:13;;;;;;;5.63;2.60;;;;;;;;;;5028284;28;20061;-68
2023/09/14 11:07:39;;;;;;;5.57;2.70;;;;;;;;;;5035283;28;20488;-68
2023/09/14 11:10:05;;;;;;;5.10;2.80;;;;;;;;;;5034779;28;20025;-68
2023/09/14 11:12:30;;;;;;;4.85;2.80;;;;;;;;;;5034176;28;20481;-67
2023/09/14 11:15:12;;;;;;;4.63;2.77;;;;;;;;;;5034865;28;20124;-68
2023/09/14 11:17:41;;;;;;;4.57;2.55;;;;;;;;;;5034408;28;20396;-68
2023/09/14 11:20:27;;;;;;;6.57;2.83;;;;;;;;;;5035357;28;20488;-67
2023/09/14 11:22:57;;;;;;;3.58;2.50;;;;;;;;;;5034874;28;20029;-63
2023/09/14 11:25:26;;;;;;;5.72;2.65;;;;;;;;;;5035222;28;20491;-63
2023/09/14 11:27:51;;;;;;;7.20;2.72;;;;;;;;;;5033859;28;20021;-63
2023/09/14 11:30:16;;;;;;;6.63;2.78;;;;;;;;;;5034563;28;20429;-63
2023/09/14 11:32:42;;;;;;;6.43;2.40;;;;;;;;;;5034744;28;20029;-63
2023/09/14 11:35:07;;;;;;;4.68;2.63;;;;;;;;;;5034562;28;20098;-63
2023/09/14 11:37:32;;;;;;;4.30;2.55;;;;;;;;;;5034566;28;20030;-63
2023/09/14 11:39:58;;;;;;;6.30;2.92;;;;;;;;;;5034226;28;20139;-63
2023/09/14 11:42:24;;;;;;;5.75;2.33;;;;;;;;;;5034106;28;20529;-63
2023/09/14 11:44:52;;;;;;;6.20;2.58;;;;;;;;;;5034159;28;20032;-63
2023/09/14 11:47:18;;;;;;;6.28;2.47;;;;;;;;;;5034447;28;20061;-63
2023/09/14 11:49:44;;;;;;;4.75;2.45;;;;;;;;;;5034585;28;20053;-63
2023/09/14 11:52:11;;;;;;;3.80;2.20;;;;;;;;;;5035067;28;20044;-64
2023/09/14 11:54:36;;;;;;;4.03;2.22;;;;;;;;;;5034087;28;20025;-63
2023/09/14 11:57:07;;;;;;;3.07;2.10;;;;;;;;;;5033289;28;20040;-63
2023/09/14 11:59:33;;;;;;;5.13;2.10;;;;;;;;;;5033975;28;20018;-64
2023/09/14 12:01:59;;;;;;;4.03;2.70;;;;;;;;;;5034308;28;20378;-63
2023/09/14 12:04:27;;;;;;;5.22;2.67;;;;;;;;;;5034481;28;20022;-63
2023/09/14 12:06:52;;;;;;;6.63;2.67;;;;;;;;;;5034097;28;20417;-64
2023/09/14 12:09:31;;;;;;;6.40;2.83;;;;;;;;;;5034013;28;20013;-66
2023/09/14 12:11:56;;;;;;;4.32;2.17;;;;;;;;;;5033548;28;20036;-64
2023/09/14 12:14:32;;;;;;;6.43;2.27;;;;;;;;;;5033607;28;20037;-64
2023/09/14 12:16:57;;;;;;;4.25;2.63;;;;;;;;;;5033585;28;20469;-64
2023/09/14 12:19:22;;;;;;;5.20;2.43;;;;;;;;;;5034129;28;20028;-64
2023/09/14 12:21:48;;;;;;;4.17;2.40;;;;;;;;;;5034461;28;20025;-63
2023/09/14 12:24:13;;;;;;;22.17;4.60;;;;;;;;;;5033547;28;20056;-64
2023/09/14 12:26:38;;;;;;;4.97;2.17;;;;;;;;;;5033409;28;20309;-64
2023/09/14 12:29:03;;;;;;;4.28;2.38;;;;;;;;;;5033213;28;20136;-64
2023/09/14 12:31:31;;;;;;;5.90;2.55;;;;;;;;;;5033090;28;20512;-64
2023/09/14 12:33:58;;;;;;;5.57;2.25;;;;;;;;;;5033844;28;20063;-64
2023/09/14 12:36:23;;;;;;;3.58;2.08;;;;;;;;;;5033389;28;20049;-64
2023/09/14 12:38:49;;;;;;;3.28;2.05;;;;;;;;;;5033448;28;20060;-64
2023/09/14 12:41:14;;;;;;;5.28;2.58;;;;;;;;;;5015760;28;20036;-64
2023/09/14 12:43:40;;;;;;;4.20;2.38;;;;;;;;;;5032929;28;20033;-64
2023/09/14 12:46:05;;;;;;;5.60;2.40;;;;;;;;;;5033046;28;20075;-64
2023/09/14 12:48:31;;;;;;;6.10;2.50;;;;;;;;;;5033029;28;20022;-64
2023/09/14 12:50:59;;;;;;;5.63;2.73;;;;;;;;;;5033604;28;20345;-64
2023/09/14 12:53:27;;;;;;;5.90;2.58;;;;;;;;;;5033233;28;20275;-64
2023/09/14 12:55:55;;;;;;;4.03;2.10;;;;;;;;;;5025131;28;20493;-64
2023/09/14 12:58:21;;;;;;;3.63;2.28;;;;;;;;;;5033003;28;20127;-64
2023/09/14 13:00:46;;;;;;;6.07;2.42;;;;;;;;;;5032789;28;20108;-64
2023/09/14 13:03:13;;;;;;;6.10;3.42;;;;;;;;;;5032952;28;20171;-63
2023/09/14 13:05:39;;;;;;;6.88;2.55;;;;;;;;;;5032918;28;20078;-63
2023/09/14 13:08:04;;;;;;;4.63;2.33;;;;;;;;;;5032875;28;20037;-63
2023/09/14 13:10:33;;;;;;;3.88;2.15;;;;;;;;;;5032891;28;20022;-63
2023/09/14 13:13:05;;;;;;;5.38;1.75;;;;;;;;;;5031605;28;20397;-64
2023/09/14 13:15:31;;;;;;;6.85;2.47;;;;;;;;;;5032996;28;20409;-64
2023/09/14 13:17:58;;;;;;;7.25;2.75;;;;;;;;;;5032820;28;20025;-63
2023/09/14 13:20:26;;;;;;;4.18;2.28;;;;;;;;;;5033014;28;20434;-63
2023/09/14 13:22:51;;;;;;;4.72;1.70;;;;;;;;;;5032748;28;20040;-63
2023/09/14 13:25:17;;;;;;;5.22;2.47;;;;;;;;;;5032550;28;20017;-63
2023/09/14 13:27:42;;;;;;;4.13;2.30;;;;;;;;;;5031958;28;20505;-63
2023/09/14 13:30:09;;;;;;;4.93;2.33;;;;;;;;;;5032314;28;20320;-64
2023/09/14 13:32:34;;;;;;;5.55;2.17;;;;;;;;;;5032597;28;20285;-63
2023/09/14 13:35:00;;;;;;;3.17;1.92;;;;;;;;;;5032646;28;20017;-63
2023/09/14 13:37:25;;;;;;;6.97;2.33;;;;;;;;;;5032663;28;20022;-64
2023/09/14 13:39:50;;;;;;;6.37;2.37;;;;;;;;;;5032330;28;20258;-63
2023/09/14 13:42:15;;;;;;;5.37;2.30;;;;;;;;;;5032075;28;20064;-69
2023/09/14 13:44:40;;;;;;;4.53;2.00;;;;;;;;;;5032372;28;20037;-69
2023/09/14 13:47:06;;;;;;;4.40;2.05;;;;;;;;;;5032472;28;20025;-69
2023/09/14 13:49:31;;;;;;;3.63;1.97;;;;;;;;;;5031931;28;20025;-69
2023/09/14 13:51:56;;;;;;;3.17;1.70;;;;;;;;;;5032497;28;20025;-69
2023/09/14 13:54:21;;;;;;;4.20;2.00;;;;;;;;;;5033042;28;20022;-69
2023/09/14 13:56:46;;;;;;;7.25;2.50;;;;;;;;;;5032168;28;20726;-70
2023/09/14 13:59:12;;;;;;;7.37;2.10;;;;;;;;;;5014930;28;20024;-69
2023/09/14 14:01:37;;;;;;;4.63;2.15;;;;;;;;;;5032853;28;20010;-69
2023/09/14 14:04:02;;;;;;;6.77;2.67;;;;;;;;;;5033020;28;20021;-69
2023/09/14 14:06:28;;;;;;;4.32;2.00;;;;;;;;;;5032772;28;20474;-69
2023/09/14 14:08:53;;;;;;;4.93;2.22;;;;;;;;;;5032481;28;20033;-69
2023/09/14 14:11:19;;;;;;;10.03;2.87;;;;;;;;;;5032005;28;20017;-69
2023/09/14 14:13:45;;;;;;;5.95;2.58;;;;;;;;;;5032276;28;20282;-69
2023/09/14 14:16:10;;;;;;;5.28;2.03;;;;;;;;;;5031870;28;20421;-69
2023/09/14 14:18:35;;;;;;;4.20;2.20;;;;;;;;;;5032063;28;20022;-69
2023/09/14 14:21:01;;;;;;;5.73;2.47;;;;;;;;;;5031959;28;20021;-68
2023/09/14 14:23:26;;;;;;;4.53;2.22;;;;;;;;;;5032745;28;20428;-69